createdAt,value
2022-12-06T00:01:19.940Z,102059.50
2022-12-06T00:03:52.516Z,102058.69
2022-12-06T00:06:22.438Z,102055.22
2022-12-06T00:08:51.167Z,102063.03
2022-12-06T00:11:30.764Z,102067.34
2022-12-06T00:14:00.767Z,102061.31
2022-12-06T00:16:29.028Z,102065.66
2022-12-06T00:18:57.589Z,102064.81
2022-12-06T00:21:30.377Z,102063.03
2022-12-06T00:24:07.759Z,102059.50
2022-12-06T00:26:37.366Z,102056.00
2022-12-06T00:29:05.527Z,102056.91
2022-12-06T00:31:34.643Z,102052.59
2022-12-06T00:34:03.646Z,102054.38
2022-12-06T00:36:33.717Z,102061.38
2022-12-06T00:39:07.007Z,102051.00
2022-12-06T00:41:35.066Z,102055.41
2022-12-06T00:44:02.684Z,102052.88
2022-12-06T00:46:32.005Z,102042.44
2022-12-06T00:49:01.330Z,102048.53
2022-12-06T00:51:31.449Z,102049.38
2022-12-06T00:53:59.362Z,102037.94
2022-12-06T00:56:27.185Z,102047.50
2022-12-06T00:58:54.967Z,102046.63
2022-12-06T01:01:25.323Z,102048.38
2022-12-06T01:03:55.882Z,102037.91
2022-12-06T01:06:28.163Z,102036.97
2022-12-06T01:09:00.382Z,102035.22
2022-12-06T01:11:27.924Z,102037.75
2022-12-06T01:13:56.795Z,102049.00
2022-12-06T01:16:27.460Z,102053.31
2022-12-06T01:18:56.582Z,102048.03
2022-12-06T01:21:25.049Z,102045.38
2022-12-06T01:23:54.314Z,102047.97
2022-12-06T01:26:25.179Z,102053.25
2022-12-06T01:28:53.328Z,102052.38
2022-12-06T01:31:22.058Z,102059.31
2022-12-06T01:33:49.447Z,102058.41
2022-12-06T01:36:18.555Z,102061.03
2022-12-06T01:38:49.700Z,102059.16
2022-12-06T01:41:18.216Z,102060.72
2022-12-06T01:43:45.926Z,102055.44
2022-12-06T01:46:26.489Z,102061.41
2022-12-06T01:49:10.058Z,102052.69
2022-12-06T01:51:38.734Z,102051.63
2022-12-06T01:54:09.984Z,102038.50
2022-12-06T01:56:38.918Z,102039.34
2022-12-06T01:59:08.443Z,102040.22
2022-12-06T02:01:37.624Z,102041.00
2022-12-06T02:04:06.796Z,102032.25
2022-12-06T02:06:34.873Z,102033.09
2022-12-06T02:09:05.364Z,102032.13
2022-12-06T02:11:35.501Z,102036.50
2022-12-06T02:14:05.891Z,102029.50
2022-12-06T02:16:42.417Z,102023.38
2022-12-06T02:19:21.989Z,102027.63
2022-12-06T02:22:17.905Z,102024.94
2022-12-06T02:25:13.040Z,102025.84
2022-12-06T02:28:01.736Z,102018.84
2022-12-06T02:31:01.044Z,102021.53
2022-12-06T02:33:41.033Z,102018.03
2022-12-06T02:36:23.087Z,102018.03
2022-12-06T02:39:05.565Z,102007.50
2022-12-06T02:41:44.054Z,102013.69
2022-12-06T02:44:20.671Z,102016.22
2022-12-06T02:46:51.104Z,102010.94
2022-12-06T02:49:20.089Z,102011.78
2022-12-06T02:51:49.318Z,102008.19
2022-12-06T02:54:17.654Z,102005.59
2022-12-06T02:56:44.823Z,102012.44
2022-12-06T02:59:12.091Z,102003.66
2022-12-06T03:01:45.132Z,102001.06
2022-12-06T03:04:49.858Z,101994.78
2022-12-06T03:07:35.502Z,102000.81
2022-12-06T03:10:03.173Z,101999.94
2022-12-06T03:12:39.613Z,101993.88
2022-12-06T03:15:55.779Z,102001.84
2022-12-06T03:18:43.825Z,102000.13
2022-12-06T03:21:16.031Z,101999.31
2022-12-06T03:23:50.019Z,102004.63
2022-12-06T03:26:23.651Z,102005.44
2022-12-06T03:28:56.214Z,102000.09
2022-12-06T03:31:27.820Z,102004.47
2022-12-06T03:34:08.429Z,102000.13
2022-12-06T03:36:37.104Z,102001.06
2022-12-06T03:39:08.266Z,101997.59
2022-12-06T03:41:48.241Z,102000.22
2022-12-06T03:44:15.699Z,101995.00
2022-12-06T03:46:48.897Z,101989.84
2022-12-06T03:49:22.649Z,101992.53
2022-12-06T03:51:50.005Z,101990.00
2022-12-06T03:54:17.473Z,101995.22
2022-12-06T03:56:44.863Z,101992.66
2022-12-06T03:59:12.568Z,101994.47
2022-12-06T04:01:42.138Z,101995.34
2022-12-06T04:04:10.208Z,101990.13
2022-12-06T04:06:37.410Z,101985.81
2022-12-06T04:09:23.222Z,101980.59
2022-12-06T04:11:50.449Z,101991.09
2022-12-06T04:14:17.927Z,101987.69
2022-12-06T04:17:03.782Z,101976.38
2022-12-06T04:19:31.067Z,101970.31
2022-12-06T04:22:17.358Z,101979.94
2022-12-06T04:24:44.554Z,101973.06
2022-12-06T04:27:30.300Z,101976.63
2022-12-06T04:30:16.085Z,101970.59
2022-12-06T04:33:01.965Z,101975.81
2022-12-06T04:35:47.550Z,101966.28
2022-12-06T04:38:33.396Z,101967.09
2022-12-06T04:41:00.611Z,101967.16
2022-12-06T04:43:42.892Z,101956.72
2022-12-06T04:46:15.641Z,101950.53
2022-12-06T04:48:42.969Z,101954.88
2022-12-06T04:51:13.282Z,101951.34
2022-12-06T04:53:40.743Z,101947.84
2022-12-06T04:56:08.134Z,101948.66
2022-12-06T04:58:35.542Z,101943.44
2022-12-06T05:01:02.927Z,101938.19
2022-12-06T05:03:30.326Z,101939.84
2022-12-06T05:05:57.656Z,101941.53
2022-12-06T05:08:24.948Z,101941.53
2022-12-06T05:10:52.445Z,101948.47
2022-12-06T05:13:20.572Z,101941.44
2022-12-06T05:15:55.169Z,101938.78
2022-12-06T05:18:23.564Z,101943.06
2022-12-06T05:20:51.759Z,101938.56
2022-12-06T05:23:18.946Z,101940.09
2022-12-06T05:25:46.363Z,101939.09
2022-12-06T05:28:13.716Z,101934.72
2022-12-06T05:30:41.022Z,101937.25
2022-12-06T05:33:08.239Z,101936.34
2022-12-06T05:35:35.521Z,101926.72
2022-12-06T05:38:02.825Z,101926.72
2022-12-06T05:40:30.068Z,101927.56
2022-12-06T05:42:57.365Z,101921.38
2022-12-06T05:45:24.565Z,101930.69
2022-12-06T05:47:51.762Z,101927.84
2022-12-06T05:50:18.991Z,101931.16
2022-12-06T05:52:48.507Z,101935.28
2022-12-06T05:55:15.669Z,101933.25
2022-12-06T05:57:47.247Z,101941.72
2022-12-06T06:00:15.618Z,101942.47
2022-12-06T06:02:43.076Z,101943.31
2022-12-06T06:05:10.537Z,101938.69
2022-12-06T06:07:37.999Z,101942.13
2022-12-06T06:10:07.380Z,101936.81
2022-12-06T06:12:34.642Z,101933.41
2022-12-06T06:15:02.108Z,101939.50
2022-12-06T06:17:30.671Z,101942.03
2022-12-06T06:19:58.053Z,101944.63
2022-12-06T06:22:25.280Z,101942.91
2022-12-06T06:24:52.812Z,101936.81
2022-12-06T06:27:19.989Z,101943.84
2022-12-06T06:29:47.252Z,101952.53
2022-12-06T06:32:14.539Z,101945.59
2022-12-06T06:34:41.771Z,101941.31
2022-12-06T06:37:08.965Z,101954.25
2022-12-06T06:39:36.243Z,101948.13
2022-12-06T06:42:03.554Z,101943.59
2022-12-06T06:44:30.761Z,101947.84
2022-12-06T06:46:57.968Z,101944.09
2022-12-06T06:49:25.256Z,101936.94
2022-12-06T06:51:52.472Z,101939.34
2022-12-06T06:54:20.189Z,101942.53
2022-12-06T06:56:47.585Z,101935.31
2022-12-06T06:59:14.821Z,101938.50
2022-12-06T07:01:42.226Z,101940.84
2022-12-06T07:04:09.510Z,101947.47
2022-12-06T07:06:36.743Z,101942.84
2022-12-06T07:09:04.484Z,101940.75
2022-12-06T07:11:31.858Z,101942.22
2022-12-06T07:13:59.190Z,101936.56
2022-12-06T07:16:26.533Z,101936.13
2022-12-06T07:18:54.009Z,101935.72
2022-12-06T07:21:24.590Z,101947.53
2022-12-06T07:23:51.913Z,101945.50
2022-12-06T07:26:21.987Z,101951.28
2022-12-06T07:28:50.814Z,101943.16
2022-12-06T07:31:21.125Z,101948.84
2022-12-06T07:33:51.658Z,101939.00
2022-12-06T07:36:18.944Z,101939.47
2022-12-06T07:38:51.454Z,101945.22
2022-12-06T07:41:38.511Z,101946.75
2022-12-06T07:44:33.411Z,101941.31
2022-12-06T07:47:01.090Z,101944.56
2022-12-06T07:49:28.554Z,101945.19
2022-12-06T07:51:56.812Z,101951.22
2022-12-06T07:54:24.832Z,101943.41
2022-12-06T07:56:52.568Z,101949.59
2022-12-06T07:59:19.886Z,101945.44
2022-12-06T08:01:47.348Z,101943.91
2022-12-06T08:04:14.665Z,101950.09
2022-12-06T08:06:42.402Z,101947.31
2022-12-06T08:09:10.099Z,101945.69
2022-12-06T08:11:37.592Z,101945.00
2022-12-06T08:14:05.063Z,101947.72
2022-12-06T08:16:32.501Z,101947.09
2022-12-06T08:19:01.328Z,101951.72
2022-12-06T08:21:28.989Z,101944.91
2022-12-06T08:23:56.544Z,101951.25
2022-12-06T08:26:24.948Z,101940.19
2022-12-06T08:28:52.537Z,101937.84
2022-12-06T08:31:23.059Z,101936.41
2022-12-06T08:33:50.511Z,101937.53
2022-12-06T08:36:20.846Z,101929.16
2022-12-06T08:38:48.886Z,101931.09
2022-12-06T08:41:35.188Z,101937.34
2022-12-06T08:44:03.608Z,101931.34
2022-12-06T08:46:32.499Z,101931.44
2022-12-06T08:49:00.235Z,101942.81
2022-12-06T08:51:28.184Z,101938.59
2022-12-06T08:53:56.675Z,101932.63
2022-12-06T08:56:24.656Z,101932.06
2022-12-06T08:58:56.418Z,101937.56
2022-12-06T09:01:29.250Z,101930.91
2022-12-06T09:04:01.943Z,101942.47
2022-12-06T09:06:30.047Z,101933.91
2022-12-06T09:08:58.606Z,101933.09
2022-12-06T09:11:26.803Z,101934.78
2022-12-06T09:13:54.138Z,101935.84
2022-12-06T09:16:23.749Z,101927.31
2022-12-06T09:18:51.724Z,101937.66
2022-12-06T09:21:22.613Z,101931.56
2022-12-06T09:23:50.640Z,101927.22
2022-12-06T09:26:17.952Z,101933.31
2022-12-06T09:28:49.624Z,101935.94
2022-12-06T09:31:18.969Z,101930.81
2022-12-06T09:33:47.165Z,101948.38
2022-12-06T09:36:24.588Z,101926.06
2022-12-06T09:39:00.144Z,101931.50
2022-12-06T09:41:49.192Z,101931.66
2022-12-06T09:44:38.318Z,101933.75
2022-12-06T09:47:06.639Z,101922.81
2022-12-06T09:49:52.339Z,101931.06
2022-12-06T09:52:41.238Z,101934.28
2022-12-06T09:55:16.498Z,101927.03
2022-12-06T09:57:54.598Z,101933.38
2022-12-06T10:00:23.947Z,101931.22
2022-12-06T10:03:12.379Z,101929.06
2022-12-06T10:06:01.561Z,101925.09
2022-12-06T10:08:29.390Z,101917.25
2022-12-06T10:11:15.498Z,101923.38
2022-12-06T10:14:10.426Z,101922.47
2022-12-06T10:17:00.194Z,101918.22
2022-12-06T10:19:57.165Z,101917.56
2022-12-06T10:22:46.582Z,101914.13
2022-12-06T10:25:31.683Z,101905.59
2022-12-06T10:28:37.253Z,101917.09
2022-12-06T10:31:13.822Z,101912.09
2022-12-06T10:34:01.181Z,101905.34
2022-12-06T10:36:42.613Z,101903.03
2022-12-06T10:39:20.235Z,101903.31
2022-12-06T10:42:11.966Z,101902.69
2022-12-06T10:44:51.306Z,101901.19
2022-12-06T10:47:28.128Z,101894.56
2022-12-06T10:50:14.498Z,101894.91
2022-12-06T10:52:46.654Z,101905.91
2022-12-06T10:55:36.681Z,101890.66
2022-12-06T10:58:27.475Z,101883.31
2022-12-06T11:00:59.274Z,101879.50
2022-12-06T11:03:37.956Z,101875.53
2022-12-06T11:06:26.139Z,101887.97
2022-12-06T11:08:59.601Z,101887.19
2022-12-06T11:11:35.349Z,101886.38
2022-12-06T11:14:21.063Z,101878.47
2022-12-06T11:17:00.934Z,101884.50
2022-12-06T11:19:45.527Z,101879.34
2022-12-06T11:22:37.393Z,101879.47
2022-12-06T11:25:27.513Z,101873.47
2022-12-06T11:28:05.853Z,101871.72
2022-12-06T11:30:33.622Z,101871.63
2022-12-06T11:33:03.327Z,101872.59
2022-12-06T11:35:31.710Z,101868.31
2022-12-06T11:38:03.507Z,101863.00
2022-12-06T11:40:35.944Z,101862.19
2022-12-06T11:43:07.719Z,101855.38
2022-12-06T11:45:39.581Z,101853.66
2022-12-06T11:48:22.724Z,101848.19
2022-12-06T11:50:52.278Z,101850.66
2022-12-06T11:53:24.499Z,101848.03
2022-12-06T11:55:55.803Z,101850.53
2022-12-06T11:58:41.783Z,101848.75
2022-12-06T12:01:14.277Z,101842.69
2022-12-06T12:03:47.396Z,101842.81
2022-12-06T12:06:20.499Z,101832.44
2022-12-06T12:09:02.163Z,101836.81
2022-12-06T12:11:32.749Z,101835.22
2022-12-06T12:14:03.604Z,101832.66
2022-12-06T12:16:38.256Z,101832.66
2022-12-06T12:20:13.058Z,101835.34
2022-12-06T12:22:44.963Z,101827.56
2022-12-06T12:25:22.635Z,101833.69
2022-12-06T12:27:58.268Z,101820.69
2022-12-06T12:30:37.203Z,101819.00
2022-12-06T12:33:07.194Z,101808.69
2022-12-06T12:35:42.248Z,101812.25
2022-12-06T12:38:09.479Z,101814.91
2022-12-06T12:40:38.357Z,101814.16
2022-12-06T12:43:14.963Z,101811.53
2022-12-06T12:46:07.079Z,101809.88
2022-12-06T12:48:34.736Z,101804.72
2022-12-06T12:51:05.823Z,101795.25
2022-12-06T12:53:37.068Z,101799.69
2022-12-06T12:56:18.796Z,101799.75
2022-12-06T12:58:52.896Z,101799.75
2022-12-06T13:01:42.415Z,101795.34
2022-12-06T13:04:33.456Z,101791.13
2022-12-06T13:07:11.351Z,101795.56
2022-12-06T13:09:57.281Z,101802.59
2022-12-06T13:12:59.794Z,101793.81
2022-12-06T13:15:38.364Z,101792.91
2022-12-06T13:18:13.622Z,101792.00
2022-12-06T13:20:41.269Z,101780.66
2022-12-06T13:23:13.951Z,101790.19
2022-12-06T13:25:47.102Z,101797.16
2022-12-06T13:28:19.141Z,101784.88
2022-12-06T13:30:50.833Z,101773.47
2022-12-06T13:33:27.241Z,101781.31
2022-12-06T13:36:03.240Z,101774.31
2022-12-06T13:38:41.662Z,101773.34
2022-12-06T13:41:14.779Z,101777.75
2022-12-06T13:43:45.778Z,101769.91
2022-12-06T13:46:20.930Z,101767.31
2022-12-06T13:48:53.357Z,101763.88
2022-12-06T13:51:32.635Z,101770.78
2022-12-06T13:54:02.894Z,101769.91
2022-12-06T13:56:41.799Z,101769.84
2022-12-06T13:59:11.993Z,101772.38
2022-12-06T14:02:02.556Z,101762.72
2022-12-06T14:07:04.033Z,101767.13
2022-12-06T14:09:42.702Z,101767.06
2022-12-06T14:12:18.014Z,101774.06
2022-12-06T14:14:57.929Z,101767.06
2022-12-06T14:18:02.212Z,101762.72
2022-12-06T14:20:29.654Z,101759.16
2022-12-06T14:22:57.337Z,101754.72
2022-12-06T14:25:31.444Z,101756.41
2022-12-06T14:28:06.262Z,101759.03
2022-12-06T14:30:34.286Z,101753.78
2022-12-06T14:33:01.771Z,101757.22
2022-12-06T14:35:36.291Z,101744.94
2022-12-06T14:38:21.617Z,101747.53
2022-12-06T14:41:09.242Z,101743.13
2022-12-06T14:43:37.514Z,101742.19
2022-12-06T14:46:08.069Z,101740.38
2022-12-06T14:48:55.628Z,101735.13
2022-12-06T14:51:27.486Z,101742.91
2022-12-06T14:53:56.786Z,101736.78
2022-12-06T14:56:30.934Z,101727.09
2022-12-06T14:59:00.669Z,101729.59
2022-12-06T15:01:34.289Z,101727.75
2022-12-06T15:04:09.438Z,101724.19
2022-12-06T15:06:38.004Z,101728.47
2022-12-06T15:09:14.171Z,101725.72
2022-12-06T15:12:02.049Z,101735.22
2022-12-06T15:14:47.315Z,101722.13
2022-12-06T15:17:21.748Z,101725.47
2022-12-06T15:19:51.880Z,101724.53
2022-12-06T15:22:25.168Z,101720.97
2022-12-06T15:24:56.613Z,101715.69
2022-12-06T15:27:27.083Z,101699.94
2022-12-06T15:29:55.147Z,101696.31
2022-12-06T15:32:24.842Z,101700.56
2022-12-06T15:34:52.115Z,101693.41
2022-12-06T15:40:08.616Z,101686.84
2022-12-06T15:42:36.109Z,101682.25
2022-12-06T15:45:03.731Z,101690.78
2022-12-06T15:47:31.576Z,101690.66
2022-12-06T15:49:58.928Z,101696.63
2022-12-06T15:52:27.551Z,101695.75
2022-12-06T15:54:54.876Z,101700.97
2022-12-06T15:57:22.547Z,101700.97
2022-12-06T15:59:49.815Z,101701.84
2022-12-06T16:02:18.451Z,101703.59
2022-12-06T16:04:50.504Z,101696.63
2022-12-06T16:07:19.329Z,101700.97
2022-12-06T16:09:47.532Z,101704.44
2022-12-06T16:12:14.794Z,101700.03
2022-12-06T16:14:42.575Z,101698.19
2022-12-06T16:17:09.754Z,101700.59
2022-12-06T16:19:55.596Z,101705.72
2022-12-06T16:22:42.814Z,101698.63
2022-12-06T16:25:10.092Z,101692.38
2022-12-06T16:27:37.372Z,101694.03
2022-12-06T16:30:06.173Z,101691.38
2022-12-06T16:32:33.538Z,101693.97
2022-12-06T16:35:01.090Z,101697.44
2022-12-06T16:37:28.525Z,101695.63
2022-12-06T16:39:55.790Z,101696.56
2022-12-06T16:42:23.057Z,101691.31
2022-12-06T16:44:53.213Z,101685.19
2022-12-06T16:49:48.828Z,101678.22
2022-12-06T16:52:17.228Z,101675.38
2022-12-06T16:54:44.826Z,101680.50
2022-12-06T16:57:13.074Z,101675.06
2022-12-06T16:59:42.434Z,101683.75
2022-12-06T17:02:32.361Z,101678.38
2022-12-06T17:05:02.244Z,101684.38
2022-12-06T17:07:30.032Z,101675.53
2022-12-06T17:10:00.122Z,101676.22
2022-12-06T17:12:27.875Z,101676.09
2022-12-06T17:14:55.179Z,101673.34
2022-12-06T17:17:22.998Z,101663.59
2022-12-06T17:19:50.827Z,101668.66
2022-12-06T17:22:19.437Z,101656.22
2022-12-06T17:24:48.599Z,101661.31
2022-12-06T17:27:16.901Z,101668.06
2022-12-06T17:29:44.499Z,101668.72
2022-12-06T17:32:12.359Z,101668.53
2022-12-06T17:34:39.752Z,101669.09
2022-12-06T17:37:07.350Z,101668.94
2022-12-06T17:39:35.380Z,101672.31
2022-12-06T17:42:21.928Z,101668.75
2022-12-06T17:44:51.195Z,101664.31
2022-12-06T17:47:19.170Z,101664.16
2022-12-06T17:49:46.633Z,101664.94
2022-12-06T17:52:14.133Z,101670.06
2022-12-06T17:54:41.538Z,101665.66
2022-12-06T17:57:15.470Z,101663.75
2022-12-06T17:59:42.900Z,101666.25
2022-12-06T18:02:17.665Z,101669.66
2022-12-06T18:04:47.414Z,101673.03
2022-12-06T18:07:16.087Z,101661.63
2022-12-06T18:09:44.026Z,101662.28
2022-12-06T18:12:13.364Z,101664.03
2022-12-06T18:14:40.644Z,101655.25
2022-12-06T18:17:08.323Z,101658.66
2022-12-06T18:19:35.868Z,101658.53
2022-12-06T18:22:03.971Z,101661.06
2022-12-06T18:24:35.431Z,101675.94
2022-12-06T18:27:07.005Z,101670.88
2022-12-06T18:29:34.720Z,101672.72
2022-12-06T18:32:03.414Z,101667.59
2022-12-06T18:34:31.167Z,101655.59
2022-12-06T18:37:02.434Z,101653.22
2022-12-06T18:39:30.888Z,101647.22
2022-12-06T18:41:58.857Z,101659.56
2022-12-06T18:44:26.208Z,101661.41
2022-12-06T18:46:53.598Z,101653.72
2022-12-06T18:49:21.016Z,101662.59
2022-12-06T18:51:48.480Z,101660.94
2022-12-06T18:54:15.843Z,101659.28
2022-12-06T18:56:43.455Z,101657.63
2022-12-06T18:59:11.836Z,101655.97
2022-12-06T19:01:40.084Z,101665.69
2022-12-06T19:04:09.421Z,101650.97
2022-12-06T19:06:38.292Z,101643.28
2022-12-06T19:09:13.190Z,101646.03
2022-12-06T19:11:42.901Z,101650.53
2022-12-06T19:14:10.599Z,101649.81
2022-12-06T19:16:47.214Z,101652.44
2022-12-06T19:19:18.110Z,101649.91
2022-12-06T19:21:46.863Z,101655.13
2022-12-06T19:24:17.266Z,101662.16
2022-12-06T19:26:46.871Z,101664.88
2022-12-06T19:29:15.530Z,101657.03
2022-12-06T19:31:44.380Z,101659.78
2022-12-06T19:34:16.855Z,101649.44
2022-12-06T19:36:44.285Z,101656.41
2022-12-06T19:39:13.901Z,101645.09
2022-12-06T19:42:00.219Z,101643.38
2022-12-06T19:44:28.804Z,101636.38
2022-12-06T19:46:56.949Z,101638.94
2022-12-06T19:49:27.668Z,101642.31
2022-12-06T19:51:54.965Z,101634.34
2022-12-06T19:54:30.625Z,101631.59
2022-12-06T19:56:59.692Z,101629.75
2022-12-06T19:59:30.146Z,101633.13
2022-12-06T20:02:00.740Z,101633.06
2022-12-06T20:04:31.689Z,101639.16
2022-12-06T20:06:59.273Z,101635.66
2022-12-06T20:09:30.285Z,101633.88
2022-12-06T20:12:03.019Z,101621.75
2022-12-06T20:14:42.451Z,101617.34
2022-12-06T20:17:28.707Z,101605.13
2022-12-06T20:19:56.928Z,101612.13
2022-12-06T20:22:25.683Z,101621.75
2022-12-06T20:24:53.165Z,101622.72
2022-12-06T20:27:40.478Z,101617.59
2022-12-06T20:30:08.467Z,101615.94
2022-12-06T20:32:35.720Z,101615.13
2022-12-06T20:35:03.101Z,101608.25
2022-12-06T20:37:30.542Z,101605.72
2022-12-06T20:39:57.804Z,101605.78
2022-12-06T20:42:26.428Z,101607.56
2022-12-06T20:44:53.622Z,101598.91
2022-12-06T20:47:20.985Z,101593.72
2022-12-06T20:49:48.264Z,101604.13
2022-12-06T20:52:16.975Z,101603.19
2022-12-06T20:54:44.425Z,101599.63
2022-12-06T20:57:11.792Z,101601.31
2022-12-06T20:59:39.285Z,101605.59
2022-12-06T21:02:06.790Z,101594.19
2022-12-06T21:04:34.563Z,101602.03
2022-12-06T21:07:01.883Z,101605.50
2022-12-06T21:09:30.583Z,101608.13
2022-12-06T21:11:57.902Z,101606.47
2022-12-06T21:14:25.176Z,101607.31
2022-12-06T21:16:52.423Z,101595.09
2022-12-06T21:19:19.780Z,101594.13
2022-12-06T21:21:52.442Z,101594.03
2022-12-06T21:24:21.646Z,101591.28
2022-12-06T21:26:49.890Z,101596.22
2022-12-06T21:29:21.685Z,101588.28
2022-12-06T21:31:51.363Z,101586.38
2022-12-06T21:34:19.078Z,101599.22
2022-12-06T21:36:47.904Z,101599.88
2022-12-06T21:39:15.196Z,101592.75
2022-12-06T21:41:42.602Z,101593.38
2022-12-06T21:44:09.990Z,101591.41
2022-12-06T21:46:37.409Z,101591.06
2022-12-06T21:49:04.841Z,101586.47
2022-12-06T21:51:32.763Z,101582.72
2022-12-06T21:54:01.567Z,101593.75
2022-12-06T21:56:30.873Z,101584.69
2022-12-06T21:59:00.202Z,101584.34
2022-12-06T22:01:29.624Z,101584.06
2022-12-06T22:04:01.083Z,101587.22
2022-12-06T22:06:28.458Z,101588.66
2022-12-06T22:09:05.798Z,101593.63
2022-12-06T22:11:33.945Z,101603.00
2022-12-06T22:14:02.366Z,101590.84
2022-12-06T22:16:36.172Z,101596.84
2022-12-06T22:19:04.181Z,101595.00
2022-12-06T22:21:32.217Z,101587.72
2022-12-06T22:24:00.855Z,101589.19
2022-12-06T22:26:32.285Z,101589.19
2022-12-06T22:29:00.369Z,101593.38
2022-12-06T22:31:33.583Z,101604.38
2022-12-06T22:34:02.070Z,101606.84
2022-12-06T22:36:31.524Z,101597.91
2022-12-06T22:39:01.296Z,101602.00
2022-12-06T22:41:29.886Z,101603.50
2022-12-06T22:44:02.887Z,101600.66
2022-12-06T22:46:32.267Z,101601.41
2022-12-06T22:49:01.146Z,101597.03
2022-12-06T22:51:31.450Z,101601.34
2022-12-06T22:54:02.101Z,101597.84
2022-12-06T22:56:31.687Z,101597.03
2022-12-06T22:59:00.430Z,101592.75
2022-12-06T23:01:31.671Z,101600.53
2022-12-06T23:04:01.550Z,101589.31
2022-12-06T23:06:30.014Z,101593.69
2022-12-06T23:08:57.782Z,101590.19
2022-12-06T23:11:28.121Z,101584.19
2022-12-06T23:13:56.405Z,101583.28
2022-12-06T23:16:29.706Z,101588.50
2022-12-06T23:18:58.759Z,101579.88
2022-12-06T23:21:32.137Z,101581.56
2022-12-06T23:24:02.242Z,101578.09
2022-12-06T23:26:35.396Z,101578.00
2022-12-06T23:29:03.712Z,101566.66
2022-12-06T23:31:36.845Z,101573.50
2022-12-06T23:34:07.224Z,101574.22
2022-12-06T23:36:37.065Z,101566.34
2022-12-06T23:39:06.026Z,101574.97
2022-12-06T23:41:34.619Z,101573.31
2022-12-06T23:44:03.568Z,101576.13
2022-12-06T23:46:34.192Z,101575.41
2022-12-06T23:49:02.391Z,101574.81
2022-12-06T23:51:40.181Z,101571.38
2022-12-06T23:54:08.198Z,101564.69
2022-12-06T23:56:38.944Z,101564.84
2022-12-06T23:59:07.165Z,101561.56
